createdAt,value
2019-06-27T00:00:40.114Z,92.30
2019-06-27T00:03:07.554Z,92.20
2019-06-27T00:05:40.470Z,92.40
2019-06-27T00:08:10.280Z,92.50
2019-06-27T00:10:37.742Z,92.60
2019-06-27T00:13:05.338Z,92.60
2019-06-27T00:15:33.042Z,92.60
2019-06-27T00:18:00.526Z,92.60
2019-06-27T00:20:28.100Z,92.80
2019-06-27T00:22:55.732Z,92.80
2019-06-27T00:25:23.251Z,92.80
2019-06-27T00:27:50.844Z,92.90
2019-06-27T00:30:18.509Z,92.90
2019-06-27T00:32:46.063Z,93.00
2019-06-27T00:35:13.810Z,92.90
2019-06-27T00:37:41.291Z,92.80
2019-06-27T00:40:08.849Z,92.80
2019-06-27T00:42:36.567Z,92.70
2019-06-27T00:45:04.426Z,92.70
2019-06-27T00:47:31.932Z,92.70
2019-06-27T00:49:59.403Z,92.80
2019-06-27T00:52:26.890Z,93.00
2019-06-27T00:54:54.351Z,93.10
2019-06-27T00:57:21.791Z,93.20
2019-06-27T00:59:49.300Z,93.20
2019-06-27T01:02:16.915Z,93.20
2019-06-27T01:04:44.440Z,93.20
2019-06-27T01:07:12.034Z,93.40
2019-06-27T01:09:39.506Z,93.30
2019-06-27T01:12:07.162Z,93.10
2019-06-27T01:14:34.588Z,92.90
2019-06-27T01:17:02.066Z,92.90
2019-06-27T01:19:30.522Z,93.10
2019-06-27T01:21:58.135Z,93.80
2019-06-27T01:24:25.857Z,94.10
2019-06-27T01:26:53.335Z,94.40
2019-06-27T01:29:20.947Z,94.50
2019-06-27T01:31:49.399Z,94.60
2019-06-27T01:34:16.979Z,94.90
2019-06-27T01:36:44.502Z,95.10
2019-06-27T01:39:11.984Z,95.40
2019-06-27T01:41:39.463Z,95.50
2019-06-27T01:44:08.967Z,95.40
2019-06-27T01:46:36.604Z,96.10
2019-06-27T01:49:04.177Z,96.10
2019-06-27T01:51:31.715Z,96.10
2019-06-27T01:53:59.204Z,95.10
2019-06-27T01:56:26.671Z,95.30
2019-06-27T01:58:54.136Z,95.40
2019-06-27T02:01:21.703Z,95.50
2019-06-27T02:03:49.292Z,95.50
2019-06-27T02:06:16.907Z,95.80
2019-06-27T02:08:44.456Z,95.80
2019-06-27T02:11:11.935Z,95.80
2019-06-27T02:13:39.411Z,95.90
2019-06-27T02:16:06.895Z,95.90
2019-06-27T02:18:34.706Z,95.80
2019-06-27T02:21:02.371Z,95.70
2019-06-27T02:23:29.850Z,95.60
2019-06-27T02:25:57.311Z,95.70
2019-06-27T02:28:25.083Z,95.80
2019-06-27T02:30:52.525Z,95.70
2019-06-27T02:33:20.028Z,95.80
2019-06-27T02:35:47.657Z,95.70
2019-06-27T02:38:16.231Z,95.70
2019-06-27T02:40:43.720Z,95.70
2019-06-27T02:43:11.255Z,95.80
2019-06-27T02:45:38.921Z,95.70
2019-06-27T02:48:06.347Z,95.80
2019-06-27T02:50:33.795Z,96.00
2019-06-27T02:53:01.236Z,96.10
2019-06-27T02:55:29.012Z,96.10
2019-06-27T02:57:56.588Z,96.20
2019-06-27T03:00:24.188Z,96.30
2019-06-27T03:02:53.719Z,96.40
2019-06-27T03:05:43.978Z,96.40
2019-06-27T03:08:15.419Z,96.50
2019-06-27T03:10:42.971Z,96.60
2019-06-27T03:13:10.649Z,96.50
2019-06-27T03:15:38.281Z,96.40
2019-06-27T03:18:05.820Z,96.10
2019-06-27T03:20:33.430Z,96.20
2019-06-27T03:23:01.176Z,96.30
2019-06-27T03:25:28.691Z,96.60
2019-06-27T03:27:56.317Z,96.60
2019-06-27T03:30:23.790Z,96.50
2019-06-27T03:32:51.460Z,96.30
2019-06-27T03:35:19.357Z,96.40
2019-06-27T03:37:47.029Z,96.40
2019-06-27T03:40:14.676Z,96.30
2019-06-27T03:42:42.482Z,96.50
2019-06-27T03:45:15.410Z,96.50
2019-06-27T03:47:39.767Z,96.60
2019-06-27T03:50:07.468Z,96.90
2019-06-27T03:52:34.973Z,96.70
2019-06-27T03:55:02.728Z,96.70
2019-06-27T03:57:30.429Z,96.30
2019-06-27T03:59:58.070Z,96.20
2019-06-27T04:02:25.554Z,96.30
2019-06-27T04:04:53.058Z,96.30
2019-06-27T04:07:20.556Z,96.00
2019-06-27T04:09:48.113Z,96.00
2019-06-27T04:12:16.889Z,95.90
2019-06-27T04:14:58.387Z,96.00
2019-06-27T04:17:28.088Z,95.80
2019-06-27T04:19:55.958Z,95.80
2019-06-27T04:22:23.424Z,95.90
2019-06-27T04:24:51.040Z,95.50
2019-06-27T04:27:19.688Z,95.20
2019-06-27T04:29:47.232Z,94.90
2019-06-27T04:32:15.148Z,94.40
2019-06-27T04:34:42.687Z,94.20
2019-06-27T04:37:10.336Z,93.80
2019-06-27T04:39:38.082Z,93.80
2019-06-27T04:42:05.555Z,93.60
2019-06-27T04:44:34.087Z,93.50
2019-06-27T04:47:01.827Z,92.90
2019-06-27T04:49:29.521Z,92.50
2019-06-27T04:51:57.419Z,92.50
2019-06-27T04:54:26.033Z,92.50
2019-06-27T04:56:53.933Z,92.10
2019-06-27T04:59:22.516Z,91.80
2019-06-27T05:01:53.390Z,91.70
2019-06-27T05:04:21.303Z,91.70
2019-06-27T05:06:48.794Z,91.90
2019-06-27T05:09:16.410Z,91.70
2019-06-27T05:11:43.928Z,91.50
2019-06-27T05:14:11.613Z,91.30
2019-06-27T05:16:39.357Z,91.30
2019-06-27T05:19:07.030Z,90.70
2019-06-27T05:21:34.822Z,90.10
2019-06-27T05:24:02.793Z,90.20
2019-06-27T05:26:30.755Z,89.90
2019-06-27T05:28:59.065Z,90.80
2019-06-27T05:31:26.919Z,91.00
2019-06-27T05:33:54.830Z,91.10
2019-06-27T05:36:22.629Z,90.90
2019-06-27T05:38:50.466Z,90.10
2019-06-27T05:41:18.335Z,88.10
2019-06-27T05:43:46.141Z,86.20
2019-06-27T05:46:14.006Z,86.00
2019-06-27T05:48:41.518Z,86.40
2019-06-27T05:51:09.591Z,84.10
2019-06-27T05:53:37.175Z,85.10
2019-06-27T05:56:04.916Z,85.30
2019-06-27T05:58:32.591Z,84.50
2019-06-27T06:01:01.640Z,84.50
2019-06-27T06:03:29.238Z,82.70
2019-06-27T06:05:56.892Z,81.90
2019-06-27T06:08:24.425Z,81.90
2019-06-27T06:10:52.165Z,80.80
2019-06-27T06:13:20.214Z,80.80
2019-06-27T06:15:51.539Z,79.30
2019-06-27T06:18:22.183Z,79.10
2019-06-27T06:20:49.739Z,79.30
2019-06-27T06:23:17.293Z,78.20
2019-06-27T06:25:44.994Z,77.30
2019-06-27T06:28:12.581Z,76.10
2019-06-27T06:30:44.757Z,75.80
2019-06-27T06:33:09.735Z,74.30
2019-06-27T06:35:38.343Z,71.70
2019-06-27T06:38:05.870Z,70.90
2019-06-27T06:40:33.439Z,69.60
2019-06-27T06:43:01.030Z,70.50
2019-06-27T06:45:28.556Z,68.90
2019-06-27T06:47:56.256Z,68.90
2019-06-27T06:50:23.944Z,68.10
2019-06-27T06:52:51.757Z,68.10
2019-06-27T06:55:20.080Z,68.30
2019-06-27T06:57:47.704Z,68.30
2019-06-27T07:00:15.734Z,68.10
2019-06-27T07:02:43.411Z,67.60
2019-06-27T07:05:11.149Z,66.10
2019-06-27T07:07:38.983Z,66.10
2019-06-27T07:10:07.345Z,65.70
2019-06-27T07:12:35.004Z,65.50
2019-06-27T07:15:02.787Z,64.00
2019-06-27T07:17:30.419Z,63.50
2019-06-27T07:19:58.002Z,63.50
2019-06-27T07:22:25.599Z,63.50
2019-06-27T07:24:53.164Z,64.00
2019-06-27T07:27:20.897Z,62.70
2019-06-27T07:29:48.440Z,62.50
2019-06-27T07:32:15.991Z,64.80
2019-06-27T07:34:43.494Z,62.90
2019-06-27T07:37:11.139Z,61.60
2019-06-27T07:39:38.700Z,61.40
2019-06-27T07:42:06.186Z,60.70
2019-06-27T07:44:33.782Z,60.70
2019-06-27T07:47:01.445Z,60.50
2019-06-27T07:49:32.270Z,61.00
2019-06-27T07:51:58.981Z,60.10
2019-06-27T07:54:26.531Z,60.30
2019-06-27T07:56:54.483Z,61.20
2019-06-27T07:59:21.968Z,60.10
2019-06-27T08:01:49.479Z,60.70
2019-06-27T08:04:17.190Z,59.60
2019-06-27T08:06:45.064Z,59.00
2019-06-27T08:09:12.783Z,60.30
2019-06-27T08:11:40.485Z,60.30
2019-06-27T08:14:08.111Z,61.20
2019-06-27T08:16:35.745Z,59.80
2019-06-27T08:19:03.489Z,59.90
2019-06-27T08:21:31.034Z,60.90
2019-06-27T08:23:58.643Z,61.00
2019-06-27T08:26:26.283Z,60.10
2019-06-27T08:28:54.256Z,60.10
2019-06-27T08:31:22.090Z,58.90
2019-06-27T08:33:49.928Z,57.80
2019-06-27T08:36:17.555Z,57.00
2019-06-27T08:38:46.356Z,57.70
2019-06-27T08:41:14.299Z,58.40
2019-06-27T08:43:42.065Z,55.50
2019-06-27T08:46:09.870Z,57.40
2019-06-27T08:48:39.917Z,55.70
2019-06-27T08:51:11.395Z,54.20
2019-06-27T08:53:41.927Z,55.10
2019-06-27T08:56:09.699Z,56.00
2019-06-27T08:58:37.287Z,54.20
2019-06-27T09:01:04.799Z,52.80
2019-06-27T09:03:32.341Z,52.80
2019-06-27T09:06:00.023Z,51.70
2019-06-27T09:08:27.546Z,51.10
2019-06-27T09:10:55.137Z,50.30
2019-06-27T09:13:22.605Z,47.90
2019-06-27T09:15:50.571Z,49.40
2019-06-27T09:18:18.548Z,50.80
2019-06-27T09:20:46.208Z,50.30
2019-06-27T09:23:13.725Z,50.00
2019-06-27T09:25:41.711Z,49.30
2019-06-27T09:28:10.389Z,49.30
2019-06-27T09:30:37.902Z,47.80
2019-06-27T09:33:05.415Z,47.00
2019-06-27T09:35:32.982Z,48.40
2019-06-27T09:38:01.762Z,48.50
2019-06-27T09:40:29.398Z,46.50
2019-06-27T09:42:57.034Z,44.70
2019-06-27T09:45:24.678Z,44.70
2019-06-27T09:47:52.391Z,42.90
2019-06-27T09:50:21.659Z,42.10
2019-06-27T09:52:52.361Z,42.00
2019-06-27T09:55:20.188Z,44.10
2019-06-27T09:57:47.667Z,44.10
2019-06-27T10:00:17.613Z,43.00
2019-06-27T10:02:45.306Z,42.90
2019-06-27T10:05:13.319Z,40.90
2019-06-27T10:07:40.866Z,39.70
2019-06-27T10:10:08.721Z,39.80
2019-06-27T10:12:42.402Z,38.80
2019-06-27T10:15:06.618Z,38.90
2019-06-27T10:17:34.179Z,36.90
2019-06-27T10:20:01.743Z,38.20
2019-06-27T10:22:29.840Z,41.10
2019-06-27T10:24:57.440Z,40.30
2019-06-27T10:27:25.294Z,38.60
2019-06-27T10:29:52.878Z,36.90
2019-06-27T10:32:20.443Z,37.90
2019-06-27T10:34:47.950Z,37.60
2019-06-27T10:37:15.603Z,36.30
2019-06-27T10:39:43.129Z,37.30
2019-06-27T10:42:10.810Z,36.90
2019-06-27T10:44:38.306Z,37.60
2019-06-27T10:47:06.004Z,37.40
2019-06-27T10:49:33.532Z,35.70
2019-06-27T10:52:01.208Z,38.30
2019-06-27T10:54:29.047Z,36.20
2019-06-27T10:56:56.860Z,38.50
2019-06-27T10:59:24.427Z,36.20
2019-06-27T11:01:51.966Z,36.90
2019-06-27T11:04:19.447Z,36.80
2019-06-27T11:06:47.424Z,36.50
2019-06-27T11:09:15.985Z,36.90
2019-06-27T11:11:43.506Z,36.90
2019-06-27T11:14:11.068Z,36.90
2019-06-27T11:16:38.675Z,38.80
2019-06-27T11:19:06.458Z,38.30
2019-06-27T11:21:34.055Z,34.80
2019-06-27T11:24:01.647Z,35.10
2019-06-27T11:26:29.331Z,34.20
2019-06-27T11:28:58.147Z,35.10
2019-06-27T11:31:25.807Z,37.60
2019-06-27T11:33:53.430Z,37.70
2019-06-27T11:36:21.051Z,38.60
2019-06-27T11:38:48.516Z,38.80
2019-06-27T11:41:16.271Z,36.60
2019-06-27T11:43:44.081Z,35.00
2019-06-27T11:46:11.618Z,36.20
2019-06-27T11:48:39.765Z,38.30
2019-06-27T11:51:12.541Z,37.90
2019-06-27T11:53:44.246Z,36.60
2019-06-27T11:56:12.188Z,35.30
2019-06-27T11:58:39.892Z,35.70
2019-06-27T12:01:07.589Z,34.80
2019-06-27T12:03:48.234Z,35.40
2019-06-27T12:06:04.705Z,36.50
2019-06-27T12:08:32.528Z,35.10
2019-06-27T12:11:01.911Z,34.40
2019-06-27T12:13:29.850Z,34.70
2019-06-27T12:15:58.439Z,34.70
2019-06-27T12:18:26.602Z,33.30
2019-06-27T12:20:54.467Z,33.40
2019-06-27T12:23:22.443Z,35.60
2019-06-27T12:25:50.281Z,34.70
2019-06-27T12:28:17.894Z,34.40
2019-06-27T12:30:46.492Z,34.10
2019-06-27T12:33:14.123Z,34.70
2019-06-27T12:35:42.084Z,33.90
2019-06-27T12:38:09.702Z,32.50
2019-06-27T12:40:37.285Z,35.30
2019-06-27T12:43:04.982Z,33.90
2019-06-27T12:45:33.668Z,35.00
2019-06-27T12:48:07.329Z,33.60
2019-06-27T12:50:30.646Z,35.00
2019-06-27T12:52:58.115Z,34.10
2019-06-27T12:55:25.664Z,33.90
2019-06-27T12:57:53.135Z,34.10
2019-06-27T13:00:20.868Z,32.20
2019-06-27T13:02:48.333Z,35.00
2019-06-27T13:05:15.997Z,34.40
2019-06-27T13:07:46.824Z,34.80
2019-06-27T13:10:15.889Z,34.10
2019-06-27T13:12:43.659Z,33.60
2019-06-27T13:15:11.446Z,36.60
2019-06-27T13:17:39.094Z,35.40
2019-06-27T13:20:06.840Z,35.00
2019-06-27T13:22:34.333Z,34.50
2019-06-27T13:25:02.067Z,34.40
2019-06-27T13:27:30.807Z,34.20
2019-06-27T13:29:58.295Z,34.80
2019-06-27T13:32:26.949Z,34.40
2019-06-27T13:34:54.552Z,36.30
2019-06-27T13:37:21.999Z,36.00
2019-06-27T13:39:49.465Z,35.40
2019-06-27T13:42:16.981Z,35.90
2019-06-27T13:44:45.690Z,34.80
2019-06-27T13:47:13.262Z,35.30
2019-06-27T13:49:40.702Z,34.10
2019-06-27T13:52:08.290Z,35.40
2019-06-27T13:54:35.870Z,35.40
2019-06-27T13:57:23.737Z,35.30
2019-06-27T13:59:54.422Z,34.70
2019-06-27T14:02:22.032Z,35.90
2019-06-27T14:04:57.224Z,37.60
2019-06-27T14:07:19.117Z,35.60
2019-06-27T14:09:53.608Z,34.20
2019-06-27T14:12:16.136Z,37.70
2019-06-27T14:14:58.867Z,37.60
2019-06-27T14:17:13.121Z,38.80
2019-06-27T14:19:40.782Z,36.80
2019-06-27T14:22:08.311Z,36.00
2019-06-27T14:24:35.815Z,36.00
2019-06-27T14:27:04.692Z,36.30
2019-06-27T14:29:32.416Z,36.60
2019-06-27T14:31:59.986Z,35.60
2019-06-27T14:34:27.583Z,35.70
2019-06-27T14:36:55.146Z,36.50
2019-06-27T14:39:22.723Z,36.50
2019-06-27T14:41:50.209Z,36.00
2019-06-27T14:44:17.811Z,38.20
2019-06-27T14:46:45.344Z,40.00
2019-06-27T14:49:12.921Z,38.80
2019-06-27T14:51:40.404Z,37.40
2019-06-27T14:54:07.913Z,40.10
2019-06-27T14:56:35.421Z,40.50
2019-06-27T14:59:03.144Z,40.30
2019-06-27T15:01:30.687Z,40.10
2019-06-27T15:03:58.189Z,40.30
2019-06-27T15:06:25.697Z,39.70
2019-06-27T15:08:53.264Z,38.80
2019-06-27T15:11:20.770Z,39.70
2019-06-27T15:13:48.373Z,39.70
2019-06-27T15:16:15.870Z,40.60
2019-06-27T15:18:43.470Z,40.90
2019-06-27T15:21:11.178Z,39.80
2019-06-27T15:23:38.758Z,40.90
2019-06-27T15:26:06.271Z,40.30
2019-06-27T15:28:34.388Z,40.10
2019-06-27T15:31:03.404Z,41.40
2019-06-27T15:33:30.930Z,42.00
2019-06-27T15:35:58.491Z,41.40
2019-06-27T15:38:26.002Z,41.50
2019-06-27T15:40:55.411Z,40.10
2019-06-27T15:43:23.001Z,40.90
2019-06-27T15:45:50.534Z,40.10
2019-06-27T15:48:18.026Z,41.40
2019-06-27T15:50:46.587Z,40.90
2019-06-27T15:53:14.231Z,40.50
2019-06-27T15:55:41.862Z,41.10
2019-06-27T15:58:09.450Z,40.80
2019-06-27T16:00:39.298Z,40.00
2019-06-27T16:03:06.524Z,41.20
2019-06-27T16:05:34.278Z,41.20
2019-06-27T16:08:02.002Z,40.30
2019-06-27T16:10:29.573Z,41.10
2019-06-27T16:12:57.295Z,40.90
2019-06-27T16:15:24.891Z,42.40
2019-06-27T16:17:52.673Z,42.90
2019-06-27T16:20:21.630Z,43.20
2019-06-27T16:22:49.256Z,40.00
2019-06-27T16:25:16.864Z,38.20
2019-06-27T16:27:44.640Z,39.80
2019-06-27T16:30:12.554Z,38.50
2019-06-27T16:32:40.051Z,37.70
2019-06-27T16:35:07.838Z,38.60
2019-06-27T16:37:35.358Z,37.30
2019-06-27T16:40:03.454Z,38.20
2019-06-27T16:42:31.000Z,38.20
2019-06-27T16:44:58.690Z,37.90
2019-06-27T16:47:26.286Z,37.40
2019-06-27T16:49:53.774Z,37.40
2019-06-27T16:52:21.325Z,37.70
2019-06-27T16:54:49.485Z,36.90
2019-06-27T16:57:17.108Z,36.80
2019-06-27T16:59:44.833Z,35.70
2019-06-27T17:02:12.326Z,35.30
2019-06-27T17:04:39.861Z,35.90
2019-06-27T17:07:07.418Z,38.30
2019-06-27T17:09:35.245Z,37.60
2019-06-27T17:12:03.162Z,39.10
2019-06-27T17:14:30.703Z,37.30
2019-06-27T17:16:58.175Z,36.00
2019-06-27T17:19:25.769Z,37.30
2019-06-27T17:21:53.277Z,37.60
2019-06-27T17:24:20.838Z,35.40
2019-06-27T17:26:48.284Z,33.30
2019-06-27T17:29:16.346Z,33.70
2019-06-27T17:31:47.946Z,34.10
2019-06-27T17:34:15.606Z,34.10
2019-06-27T17:36:56.576Z,34.50
2019-06-27T17:39:12.635Z,34.40
2019-06-27T17:41:40.181Z,33.90
2019-06-27T17:44:07.635Z,34.80
2019-06-27T17:46:35.172Z,33.70
2019-06-27T17:49:02.759Z,34.20
2019-06-27T17:51:30.370Z,35.30
2019-06-27T17:53:57.959Z,36.00
2019-06-27T17:56:25.542Z,36.90
2019-06-27T17:58:53.193Z,36.80
2019-06-27T18:01:20.847Z,36.50
2019-06-27T18:03:48.432Z,35.70
2019-06-27T18:06:16.309Z,36.30
2019-06-27T18:08:43.986Z,35.00
2019-06-27T18:11:11.441Z,35.00
2019-06-27T18:13:39.027Z,35.40
2019-06-27T18:16:06.706Z,36.30
2019-06-27T18:18:34.381Z,36.90
2019-06-27T18:21:02.057Z,37.90
2019-06-27T18:23:29.564Z,36.90
2019-06-27T18:25:57.094Z,38.30
2019-06-27T18:28:24.703Z,54.30
2019-06-27T18:30:52.449Z,48.70
2019-06-27T18:33:19.951Z,44.60
2019-06-27T18:35:47.837Z,45.90
2019-06-27T18:38:15.918Z,44.90
2019-06-27T18:40:43.626Z,46.80
2019-06-27T18:43:11.299Z,44.30
2019-06-27T18:45:39.203Z,44.60
2019-06-27T18:48:06.837Z,44.00
2019-06-27T18:50:34.411Z,40.80
2019-06-27T18:53:02.050Z,38.90
2019-06-27T18:55:29.732Z,38.50
2019-06-27T18:57:57.247Z,38.60
2019-06-27T19:00:25.589Z,37.90
2019-06-27T19:02:53.239Z,38.00
2019-06-27T19:05:20.787Z,38.50
2019-06-27T19:07:48.529Z,39.40
2019-06-27T19:10:17.526Z,40.60
2019-06-27T19:12:45.198Z,41.10
2019-06-27T19:15:13.006Z,41.20
2019-06-27T19:17:43.282Z,41.20
2019-06-27T19:20:39.565Z,41.40
2019-06-27T19:23:27.053Z,41.10
2019-06-27T19:25:57.209Z,41.20
2019-06-27T19:28:24.741Z,41.10
2019-06-27T19:30:52.253Z,40.90
2019-06-27T19:33:19.848Z,40.80
2019-06-27T19:35:47.414Z,40.60
2019-06-27T19:38:16.005Z,40.80
2019-06-27T19:40:43.578Z,41.20
2019-06-27T19:43:26.632Z,41.40
2019-06-27T19:45:40.541Z,41.80
2019-06-27T19:48:08.111Z,41.70
2019-06-27T19:50:35.566Z,41.20
2019-06-27T19:53:03.103Z,41.80
2019-06-27T19:55:30.719Z,42.00
2019-06-27T19:57:58.429Z,42.70
2019-06-27T20:00:26.193Z,45.00
2019-06-27T20:02:53.857Z,44.70
2019-06-27T20:05:21.320Z,42.00
2019-06-27T20:07:48.800Z,44.30
2019-06-27T20:10:16.306Z,45.50
2019-06-27T20:12:43.785Z,46.40
2019-06-27T20:15:11.676Z,48.50
2019-06-27T20:17:39.163Z,49.40
2019-06-27T20:20:07.164Z,49.60
2019-06-27T20:22:34.661Z,48.40
2019-06-27T20:25:03.271Z,46.50
2019-06-27T20:27:30.800Z,46.40
2019-06-27T20:29:58.361Z,47.20
2019-06-27T20:32:25.816Z,46.50
2019-06-27T20:34:53.505Z,47.90
2019-06-27T20:37:40.817Z,47.50
2019-06-27T20:40:08.912Z,45.30
2019-06-27T20:42:36.543Z,47.20
2019-06-27T20:45:04.321Z,45.80
2019-06-27T20:47:32.068Z,46.20
2019-06-27T20:50:01.716Z,49.60
2019-06-27T20:52:29.791Z,43.50
2019-06-27T20:54:57.462Z,42.40
2019-06-27T20:57:25.276Z,42.00
2019-06-27T20:59:53.040Z,43.30
2019-06-27T21:02:20.838Z,43.50
2019-06-27T21:04:48.551Z,42.70
2019-06-27T21:07:16.111Z,44.00
2019-06-27T21:09:43.743Z,44.70
2019-06-27T21:12:11.518Z,45.50
2019-06-27T21:14:39.253Z,42.70
2019-06-27T21:17:06.951Z,43.30
2019-06-27T21:19:34.711Z,46.10
2019-06-27T21:22:02.400Z,47.80
2019-06-27T21:24:30.177Z,48.40
2019-06-27T21:26:57.839Z,52.00
2019-06-27T21:29:25.523Z,52.80
2019-06-27T21:31:53.313Z,55.20
2019-06-27T21:34:21.156Z,56.60
2019-06-27T21:36:48.797Z,57.20
2019-06-27T21:39:16.346Z,57.50
2019-06-27T21:41:43.936Z,60.50
2019-06-27T21:44:11.647Z,61.40
2019-06-27T21:46:39.204Z,62.50
2019-06-27T21:49:06.877Z,60.30
2019-06-27T21:51:34.540Z,59.80
2019-06-27T21:54:02.152Z,58.70
2019-06-27T21:56:29.926Z,58.00
2019-06-27T21:58:57.533Z,59.80
2019-06-27T22:01:25.393Z,60.90
2019-06-27T22:03:53.395Z,62.70
2019-06-27T22:06:21.033Z,64.40
2019-06-27T22:08:48.951Z,63.80
2019-06-27T22:11:16.459Z,62.50
2019-06-27T22:13:43.991Z,63.80
2019-06-27T22:16:11.591Z,64.40
2019-06-27T22:18:39.249Z,63.80
2019-06-27T22:21:06.808Z,62.30
2019-06-27T22:23:34.462Z,65.10
2019-06-27T22:26:02.153Z,64.00
2019-06-27T22:28:29.894Z,66.40
2019-06-27T22:30:57.534Z,67.20
2019-06-27T22:33:25.127Z,67.60
2019-06-27T22:35:55.586Z,68.70
2019-06-27T22:38:41.104Z,70.20
2019-06-27T22:41:27.038Z,70.40
2019-06-27T22:44:12.915Z,71.70
2019-06-27T22:46:58.766Z,71.30
2019-06-27T22:49:26.066Z,70.40
2019-06-27T22:52:15.246Z,70.40
2019-06-27T22:54:44.006Z,69.80
2019-06-27T22:57:11.980Z,71.50
2019-06-27T22:59:39.655Z,72.80
2019-06-27T23:02:07.815Z,73.00
2019-06-27T23:04:36.761Z,74.60
2019-06-27T23:07:04.488Z,75.20
2019-06-27T23:09:32.578Z,75.00
2019-06-27T23:12:00.387Z,74.50
2019-06-27T23:14:28.143Z,73.70
2019-06-27T23:16:55.941Z,74.50
2019-06-27T23:19:23.824Z,73.50
2019-06-27T23:21:51.631Z,74.80
2019-06-27T23:24:20.415Z,76.30
2019-06-27T23:26:48.864Z,76.30
2019-06-27T23:29:16.774Z,77.30
2019-06-27T23:31:44.659Z,77.80
2019-06-27T23:34:12.611Z,78.60
2019-06-27T23:36:40.437Z,79.50
2019-06-27T23:39:08.147Z,80.20
2019-06-27T23:41:36.107Z,80.40
2019-06-27T23:44:03.922Z,80.80
2019-06-27T23:46:41.666Z,81.90
2019-06-27T23:49:09.539Z,82.10
2019-06-27T23:51:37.763Z,82.70
2019-06-27T23:54:06.081Z,82.50
2019-06-27T23:56:35.511Z,84.10
2019-06-27T23:59:03.650Z,83.60
